Stans, Switzerland
Current Conditions -  °F | °C
As of 1:50 AM on Wednesday 22 Oct 2014 (Local Time) from LSZC Reporting Station
Overcast Overcast  
Wind Chill: 45°   Ceiling: 6000
Heat Index: 48°   Visibility: 6mi
Dew Point: 37°   Wind: 7mph
Humidity: 66%   Direction: 220°SW
Pressure: 30.09"   Gusts: NA
Location:  46.96°N, 8.35°E
Report Text: LSZC 212350Z AUTO 22006KT 190V270 9999 FEW048 OVC060 09/03 Q1019
Loading
Personal Weather Stations






























Interactive Weather Map
Tropical Storm Tracking
New forecast layout! Learn more

10-Day Weather Forecast

Advertisements
Track Severe Weather on mobile